Time;durP1;ratioP1;P1;durP2;ratioP2;P2;SDS_P1;SDS_P2;PMS_P1;PMS_P2;Temp;Humidity;BMP_temperature;BMP_pressure;BME280_temperature;BME280_humidity;BME280_pressure;Samples;Min_cycle;Max_cycle;Signal;HPM_P1;HPM_P2
2021/04/12 00:00:37;;;;;;;;;;;;;;;18.16;56.13;101732.25;5036412;28;1584;-56
2021/04/12 00:03:02;;;;;;;;;;;;;;;18.13;55.83;101737.84;5033430;28;1551;-52
2021/04/12 00:05:36;;;;;;;;;;;;;;;18.12;55.74;101725.41;5037128;28;1403;-57
2021/04/12 00:08:15;;;;;;;;;;;;;;;18.14;56.52;101734.19;5037048;28;1917;-57
2021/04/12 00:10:50;;;;;;;;;;;;;;;18.12;56.69;101725.41;5036190;28;1469;-52
2021/04/12 00:13:30;;;;;;;;;;;;;;;18.13;56.24;101724.44;5036724;28;1295;-56
2021/04/12 00:16:00;;;;;;;;;;;;;;;18.09;56.39;101721.13;5036107;28;1631;-57
2021/04/12 00:18:29;;;;;;;;;;;;;;;18.10;56.18;101730.00;5036398;28;1255;-52
2021/04/12 00:21:16;;;;;;;;;;;;;;;18.11;56.09;101726.38;5036993;28;1141;-57
2021/04/12 00:23:50;;;;;;;;;;;;;;;18.11;56.43;101712.13;5037069;28;1104;-57
2021/04/12 00:26:21;;;;;;;;;;;;;;;18.12;56.61;101712.00;5036760;28;1889;-52
2021/04/12 00:28:49;;;;;;;;;;;;;;;18.09;55.63;101717.59;5035705;28;1394;-57
2021/04/12 00:31:44;;;;;;;;;;;;;;;18.12;56.11;101713.84;5036775;28;1813;-56
2021/04/12 00:34:18;;;;;;;;;;;;;;;18.05;56.65;101714.25;5029418;28;1649;-52
2021/04/12 00:36:48;;;;;;;;;;;;;;;18.07;56.74;101716.84;5036240;28;1453;-57
2021/04/12 00:39:21;;;;;;;;;;;;;;;18.05;56.36;101714.25;5036753;28;1395;-57
2021/04/12 00:42:00;;;;;;;;;;;;;;;18.04;55.90;101699.16;5036237;28;1421;-52
2021/04/12 00:44:30;;;;;;;;;;;;;;;18.08;56.63;101721.22;5035886;28;1394;-56
2021/04/12 00:47:10;;;;;;;;;;;;;;;18.07;56.92;101714.16;5036983;28;1893;-57
2021/04/12 00:49:38;;;;;;;;;;;;;;;18.06;55.87;101720.47;5035792;28;1579;-57
2021/04/12 00:52:21;;;;;;;;;;;;;;;18.07;55.57;101711.50;5036359;28;1361;-57
2021/04/12 00:54:51;;;;;;;;;;;;;;;18.04;55.94;101711.69;5035593;28;1367;-52
2021/04/12 00:57:27;;;;;;;;;;;;;;;18.02;56.90;101713.63;5037266;28;1318;-57
2021/04/12 00:59:52;;;;;;;;;;;;;;;18.03;55.81;101710.00;5036005;28;1480;-52
2021/04/12 01:02:36;;;;;;;;;;;;;;;18.00;56.46;101715.53;5036800;28;1534;-56
2021/04/12 01:05:20;;;;;;;;;;;;;;;17.99;56.88;101708.50;5033999;28;1268;-57
2021/04/12 01:07:58;;;;;;;;;;;;;;;17.99;55.96;101697.78;5034804;28;1950;-52
2021/04/12 01:10:39;;;;;;;;;;;;;;;17.98;55.84;101696.06;5031624;28;1372;-57
2021/04/12 01:13:22;;;;;;;;;;;;;;;17.98;56.65;101707.63;5033882;28;1339;-59
2021/04/12 01:15:57;;;;;;;;;;;;;;;17.99;56.43;101711.16;5035422;28;1369;-56
2021/04/12 01:18:41;;;;;;;;;;;;;;;17.98;56.12;101698.72;5036881;28;1195;-56
2021/04/12 01:21:12;;;;;;;;;;;;;;;17.99;56.19;101700.47;5036304;28;1267;-52
2021/04/12 01:23:40;;;;;;;;;;;;;;;17.98;55.90;101693.38;5036277;28;1302;-57
2021/04/12 01:26:15;;;;;;;;;;;;;;;17.95;55.89;101701.63;5035877;28;1947;-57
2021/04/12 01:28:50;;;;;;;;;;;;;;;17.96;55.85;101700.66;5035739;28;1665;-54
2021/04/12 01:31:27;;;;;;;;;;;;;;;17.96;56.54;101701.50;5035003;28;1370;-52
2021/04/12 01:33:58;;;;;;;;;;;;;;;17.93;55.66;101700.88;5033283;28;1553;-52
2021/04/12 01:36:32;;;;;;;;;;;;;;;17.95;56.59;101694.47;5035727;28;1405;-57
2021/04/12 01:39:10;;;;;;;;;;;;;;;17.94;56.09;101700.75;5033827;28;1318;-52
2021/04/12 01:41:54;;;;;;;;;;;;;;;17.97;56.74;101697.03;5035316;28;1659;-54
2021/04/12 01:44:28;;;;;;;;;;;;;;;17.94;56.63;101697.22;5034756;28;1433;-56
2021/04/12 01:47:00;;;;;;;;;;;;;;;17.95;56.57;101691.78;5033971;28;1886;-57
2021/04/12 01:49:25;;;;;;;;;;;;;;;17.93;55.58;101677.66;5034385;28;1366;-53
2021/04/12 01:52:04;;;;;;;;;;;;;;;17.90;55.77;101677.84;5035069;28;1390;-57
2021/04/12 01:54:38;;;;;;;;;;;;;;;17.91;56.17;101674.22;5034426;28;1323;-53
2021/04/12 01:57:20;;;;;;;;;;;;;;;17.93;56.13;101666.09;5035700;28;1314;-57
2021/04/12 02:00:01;;;;;;;;;;;;;;;17.93;55.49;101676.81;5035298;28;1342;-52
2021/04/12 02:02:38;;;;;;;;;;;;;;;17.91;56.13;101668.03;5009395;23;2218;-44
2021/04/12 02:05:12;;;;;;;;;;;;;;;17.92;56.48;101672.41;4985081;28;1593;-44
2021/04/12 02:07:49;;;;;;;;;;;;;;;17.93;55.80;101677.66;4984540;28;1914;-44
2021/04/12 02:10:31;;;;;;;;;;;;;;;17.91;56.25;101689.44;5003005;23;3699;-59
2021/04/12 02:12:57;;;;;;;;;;;;;;;17.91;56.59;101679.59;4980321;28;1760;-52
2021/04/12 02:15:22;;;;;;;;;;;;;;;17.88;56.52;101664.56;4983275;28;750;-53
2021/04/12 02:17:50;;;;;;;;;;;;;;;17.86;56.05;101658.47;4982698;28;1665;-53
2021/04/12 02:20:18;;;;;;;;;;;;;;;17.88;55.69;101661.91;4984483;28;1677;-53
2021/04/12 02:22:53;;;;;;;;;;;;;;;17.87;55.84;101660.19;4984132;28;1547;-57
2021/04/12 02:25:30;;;;;;;;;;;;;;;17.86;56.58;101655.78;4984095;28;1729;-57
2021/04/12 02:27:58;;;;;;;;;;;;;;;17.84;55.77;101652.38;4983717;28;1976;-53
2021/04/12 02:30:46;;;;;;;;;;;;;;;17.86;55.75;101657.63;4987219;28;1380;-52
2021/04/12 02:33:12;;;;;;;;;;;;;;;17.82;55.57;101653.41;4985061;28;1737;-57
2021/04/12 02:35:41;;;;;;;;;;;;;;;17.99;56.02;101644.25;4981854;28;1626;-52
2021/04/12 02:38:09;;;;;;;;;;;;;;;18.51;55.42;101650.41;4982942;28;1587;-57
2021/04/12 02:40:50;;;;;;;;;;;;;;;18.81;53.92;101641.97;4983817;28;1391;-57
2021/04/12 02:43:34;;;;;;;;;;;;;;;19.15;53.39;101632.28;4983547;28;1531;-52
2021/04/12 02:46:18;;;;;;;;;;;;;;;19.60;52.72;101651.22;4983915;28;1886;-52
2021/04/12 02:48:56;;;;;;;;;;;;;;;19.88;52.06;101621.44;4974747;28;1420;-52
2021/04/12 02:51:45;;;;;;;;;;;;;;;19.99;51.75;101629.47;4987332;28;1408;-57
2021/04/12 02:54:29;;;;;;;;;;;;;;;19.89;52.25;101628.50;4982290;28;1340;-57
2021/04/12 02:57:00;;;;;;;;;;;;;;;19.88;52.12;101626.78;4990386;28;841;-52
2021/04/12 02:59:37;;;;;;;;;;;;;;;19.91;52.41;101629.22;4990462;28;1451;-52
2021/04/12 03:02:21;;;;;;;;;;;;;;;19.86;52.84;101630.44;4983355;28;1614;-57
2021/04/12 03:05:05;;;;;;;;;;;;;;;19.97;53.11;101632.28;4980854;28;1632;-57
2021/04/12 03:07:51;;;;;;;;;;;;;;;20.09;53.56;101632.28;4982449;28;1894;-57
2021/04/12 03:10:22;;;;;;;;;;;;;;;20.19;53.37;101639.50;4980986;28;1574;-57
2021/04/12 03:13:08;;;;;;;;;;;;;;;20.27;52.93;101638.88;4981240;28;1609;-57
2021/04/12 03:15:45;;;;;;;;;;;;;;;20.30;53.36;101627.88;4960466;28;1542;-52
2021/04/12 03:18:13;;;;;;;;;;;;;;;20.31;52.87;101628.75;4985023;28;771;-50
2021/04/12 03:20:56;;;;;;;;;;;;;;;20.19;53.61;101620.72;4990196;28;1740;-52
2021/04/12 03:23:36;;;;;;;;;;;;;;;20.12;53.77;101619.47;4990418;28;1383;-52
2021/04/12 03:26:24;;;;;;;;;;;;;;;20.03;54.07;101614.81;4980019;28;1976;-60
2021/04/12 03:29:08;;;;;;;;;;;;;;;20.02;54.77;101632.78;4977063;28;1577;-57
2021/04/12 03:31:34;;;;;;;;;;;;;;;20.11;54.41;101628.50;4980235;28;1490;-54
2021/04/12 03:33:59;;;;;;;;;;;;;;;20.23;54.36;101635.59;4990101;28;1447;-55
2021/04/12 03:36:27;;;;;;;;;;;;;;;20.11;54.81;101620.44;4983528;28;1590;-53
2021/04/12 03:39:08;;;;;;;;;;;;;;;20.01;53.75;101622.16;4986557;28;1559;-53
2021/04/12 03:41:33;;;;;;;;;;;;;;;20.06;53.40;101631.56;4986493;28;1375;-54
2021/04/12 03:44:14;;;;;;;;;;;;;;;20.17;53.30;101617.25;4982265;28;780;-54
2021/04/12 03:46:52;;;;;;;;;;;;;;;20.17;52.73;101632.53;4982260;28;1882;-54
2021/04/12 03:49:33;;;;;;;;;;;;;;;20.14;53.41;101622.88;4989879;28;1610;-53
2021/04/12 03:52:10;;;;;;;;;;;;;;;20.00;53.84;101632.03;4981485;28;1539;-54
2021/04/12 03:54:54;;;;;;;;;;;;;;;19.96;53.80;101619.84;4980904;28;1188;-53
2021/04/12 03:57:51;;;;;;;;;;;;;;;19.77;54.20;101615.03;4984530;28;1407;-53
2021/04/12 04:00:29;;;;;;;;;;;;;;;19.36;54.82;101627.13;4977629;28;1447;-53
2021/04/12 04:02:54;;;;;;;;;;;;;;;19.20;55.53;101626.56;4989616;28;1397;-53
2021/04/12 04:05:28;;;;;;;;;;;;;;;19.04;55.69;101627.75;4989274;28;1527;-53
2021/04/12 04:07:53;;;;;;;;;;;;;;;18.94;56.00;101637.44;4987538;28;1902;-58
2021/04/12 04:10:30;;;;;;;;;;;;;;;18.90;55.98;101630.59;4990777;28;1348;-55
2021/04/12 04:13:11;;;;;;;;;;;;;;;18.88;56.15;101632.53;4979445;28;1361;-54
2021/04/12 04:15:42;;;;;;;;;;;;;;;18.92;56.11;101643.84;4995499;28;1490;-51
2021/04/12 04:18:08;;;;;;;;;;;;;;;18.89;56.25;101634.22;4990279;28;1187;-53
2021/04/12 04:20:43;;;;;;;;;;;;;;;18.91;56.36;101640.34;4986095;28;1674;-58
2021/04/12 04:23:27;;;;;;;;;;;;;;;18.92;56.76;101630.47;4986475;28;1423;-58
2021/04/12 04:25:52;;;;;;;;;;;;;;;18.88;56.71;101648.63;4986550;28;1692;-59
2021/04/12 04:28:17;;;;;;;;;;;;;;;18.78;56.80;101639.47;4985450;28;1902;-58
2021/04/12 04:30:56;;;;;;;;;;;;;;;18.76;56.61;101639.63;4988651;28;1352;-54
2021/04/12 04:33:33;;;;;;;;;;;;;;;18.73;56.04;101633.63;4991295;28;1398;-58
2021/04/12 04:36:10;;;;;;;;;;;;;;;18.47;55.49;101644.41;4986513;28;1161;-58
2021/04/12 04:38:48;;;;;;;;;;;;;;;18.45;56.51;101641.00;4989248;28;1078;-56
2021/04/12 04:41:37;;;;;;;;;;;;;;;18.48;56.70;101638.94;4986533;28;1811;-54
2021/04/12 04:44:21;;;;;;;;;;;;;;;18.49;56.87;101639.78;4989528;28;1296;-54
2021/04/12 04:47:05;;;;;;;;;;;;;;;18.53;56.64;101638.59;4990974;28;1887;-55
2021/04/12 04:49:55;;;;;;;;;;;;;;;18.66;56.11;101630.53;4990457;28;1427;-58
2021/04/12 04:52:29;;;;;;;;;;;;;;;19.02;54.78;101637.72;4983585;28;1308;-58
2021/04/12 04:55:04;;;;;;;;;;;;;;;20.27;51.48;101634.38;4991430;28;1352;-58
2021/04/12 04:57:36;;;;;;;;;;;;;;;21.68;48.71;101620.13;4995015;28;1374;-53
2021/04/12 05:00:08;;;;;;;;;;;;;;;22.48;46.20;101613.97;4990490;28;1263;-55
2021/04/12 05:02:43;;;;;;;;;;;;;;;22.70;46.01;101628.22;5006445;28;1458;-60
2021/04/12 05:05:08;;;;;;;;;;;;;;;22.68;45.69;101630.19;4989601;28;1316;-62
2021/04/12 05:07:34;;;;;;;;;;;;;;;22.70;46.00;101644.38;4991788;28;1898;-60
2021/04/12 05:10:17;;;;;;;;;;;;;;;22.17;46.85;101640.09;4990622;28;1384;-59
2021/04/12 05:12:43;;;;;;;;;;;;;;;21.31;48.86;101626.78;4987254;28;1250;-61
2021/04/12 05:15:27;;;;;;;;;;;;;;;20.81;50.99;101647.97;4992305;28;1352;-57
2021/04/12 05:18:01;;;;;;;;;;;;;;;20.32;51.15;101642.06;4991549;28;1198;-57
2021/04/12 05:20:36;;;;;;;;;;;;;;;20.19;52.21;101638.63;4991783;28;1422;-55
2021/04/12 05:23:01;;;;;;;;;;;;;;;20.09;52.64;101641.19;4992551;28;1376;-58
2021/04/12 05:25:33;;;;;;;;;;;;;;;20.08;53.58;101636.81;4990413;28;1363;-56
2021/04/12 05:28:06;;;;;;;;;;;;;;;20.02;52.93;101640.81;4988232;28;1987;-57
2021/04/12 05:30:40;;;;;;;;;;;;;;;20.05;53.57;101635.22;4991166;28;1230;-56
2021/04/12 05:33:24;;;;;;;;;;;;;;;20.05;53.06;101645.09;4994690;28;1171;-58
2021/04/12 05:36:01;;;;;;;;;;;;;;;20.17;53.36;101649.47;4988318;28;1471;-65
2021/04/12 05:38:27;;;;;;;;;;;;;;;20.23;53.46;101632.91;4992408;28;1474;-57
2021/04/12 05:41:16;;;;;;;;;;;;;;;20.46;50.78;101639.09;4990750;28;1431;-57
2021/04/12 05:44:01;;;;;;;;;;;;;;;20.24;52.57;101633.75;4999098;28;1622;-57
2021/04/12 05:46:42;;;;;;;;;;;;;;;20.15;52.43;101621.91;4990861;28;1957;-57
2021/04/12 05:49:26;;;;;;;;;;;;;;;20.09;50.20;101630.44;5007361;28;1439;-57
2021/04/12 05:51:57;;;;;;;;;;;;;;;20.09;50.22;101627.75;4989481;28;1435;-60
2021/04/12 05:54:28;;;;;;;;;;;;;;;20.20;51.68;101622.41;4988801;28;1384;-58
2021/04/12 05:56:59;;;;;;;;;;;;;;;20.21;52.04;101621.44;4991978;28;1404;-60
2021/04/12 05:59:28;;;;;;;;;;;;;;;20.02;53.00;101621.19;4990736;28;1432;-57
2021/04/12 06:01:59;;;;;;;;;;;;;;;20.07;53.10;101621.66;4983981;28;1463;-61
2021/04/12 06:04:37;;;;;;;;;;;;;;;20.15;52.54;101629.94;4985026;28;1280;-57
2021/04/12 06:07:09;;;;;;;;;;;;;;;20.05;53.07;101613.75;4982042;28;1871;-57
2021/04/12 06:09:45;;;;;;;;;;;;;;;20.01;53.54;101608.72;4981976;28;1192;-57
2021/04/12 06:12:17;;;;;;;;;;;;;;;20.07;53.28;101616.28;4983052;28;1349;-57
2021/04/12 06:15:01;;;;;;;;;;;;;;;20.04;53.20;101616.56;4987123;28;1195;-58
2021/04/12 06:17:41;;;;;;;;;;;;;;;19.97;53.75;101612.63;4976926;28;1439;-58
2021/04/12 06:20:09;;;;;;;;;;;;;;;19.85;53.66;101609.94;4982907;28;1288;-59
2021/04/12 06:22:43;;;;;;;;;;;;;;;19.82;53.76;101612.88;4985992;28;1309;-59
2021/04/12 06:25:28;;;;;;;;;;;;;;;19.78;54.28;101621.28;4987530;28;1369;-58
2021/04/12 06:28:09;;;;;;;;;;;;;;;19.78;54.28;101627.50;4979193;28;1914;-58
2021/04/12 06:30:59;;;;;;;;;;;;;;;19.65;54.03;101629.38;4985452;28;1446;-58
2021/04/12 06:33:30;;;;;;;;;;;;;;;19.71;54.29;101617.34;4986392;28;1159;-61
2021/04/12 06:36:14;;;;;;;;;;;;;;;19.70;54.31;101608.44;4985933;28;1366;-57
2021/04/12 06:38:45;;;;;;;;;;;;;;;19.67;54.59;101614.88;4983085;28;1229;-56
2021/04/12 06:41:17;;;;;;;;;;;;;;;19.74;54.42;101622.50;4984666;28;1225;-57
2021/04/12 06:43:45;;;;;;;;;;;;;;;19.81;54.24;101618.34;4983310;28;1682;-58
2021/04/12 06:46:10;;;;;;;;;;;;;;;19.75;54.23;101610.78;4983807;28;1949;-57
2021/04/12 06:48:38;;;;;;;;;;;;;;;19.75;54.11;101617.00;4985528;28;1280;-56
2021/04/12 06:51:22;;;;;;;;;;;;;;;19.69;54.40;101609.38;4986041;28;1169;-58
2021/04/12 06:54:00;;;;;;;;;;;;;;;19.69;54.43;101612.06;4985212;28;1184;-56
2021/04/12 06:56:44;;;;;;;;;;;;;;;19.69;54.55;101617.44;4985077;28;1268;-57
2021/04/12 06:59:09;;;;;;;;;;;;;;;19.70;54.41;101597.69;4987722;28;1290;-57
2021/04/12 07:02:00;;;;;;;;;;;;;;;19.71;54.40;101598.53;4981766;28;1428;-56
2021/04/12 07:04:34;;;;;;;;;;;;;;;19.70;54.28;101603.06;4984882;28;1249;-56
2021/04/12 07:07:00;;;;;;;;;;;;;;;19.71;54.79;101604.78;4990346;28;1898;-61
2021/04/12 07:09:25;;;;;;;;;;;;;;;19.75;53.20;101608.94;4989165;28;1228;-60
2021/04/12 07:11:50;;;;;;;;;;;;;;;19.66;52.39;101606.97;4988042;28;1582;-56
2021/04/12 07:14:34;;;;;;;;;;;;;;;19.41;49.55;101608.84;4989407;28;1498;-56
2021/04/12 07:17:00;;;;;;;;;;;;;;;19.20;45.13;101618.50;4980562;28;1686;-58
2021/04/12 07:19:31;;;;;;;;;;;;;;;18.97;43.13;101614.91;4984203;28;1474;-58
2021/04/12 07:21:59;;;;;;;;;;;;;;;18.72;41.39;101605.09;4983007;28;1336;-58
2021/04/12 07:24:46;;;;;;;;;;;;;;;18.72;40.96;101605.09;4980977;28;1297;-58
2021/04/12 07:27:23;;;;;;;;;;;;;;;18.66;45.61;101612.66;4979485;28;1910;-58
2021/04/12 07:30:07;;;;;;;;;;;;;;;18.68;44.60;101599.13;4979094;28;1367;-56
2021/04/12 07:32:51;;;;;;;;;;;;;;;18.69;39.56;101599.00;4984519;28;1224;-56
2021/04/12 07:35:19;;;;;;;;;;;;;;;18.50;41.29;101601.31;4982894;28;1343;-56
2021/04/12 07:37:45;;;;;;;;;;;;;;;18.74;41.46;101597.81;4984305;28;1345;-57
2021/04/12 07:40:28;;;;;;;;;;;;;;;18.84;42.06;101601.53;4984762;28;1316;-56
2021/04/12 07:43:08;;;;;;;;;;;;;;;18.78;38.52;101599.28;4980405;28;1422;-57
2021/04/12 07:45:53;;;;;;;;;;;;;;;18.68;38.97;101600.00;4978677;28;1291;-58
2021/04/12 07:48:37;;;;;;;;;;;;;;;18.66;38.73;101588.53;4998225;28;2272;-58
2021/04/12 07:51:02;;;;;;;;;;;;;;;18.71;39.84;101587.34;4983132;28;1269;-58
2021/04/12 07:53:33;;;;;;;;;;;;;;;18.82;42.19;101574.88;4983352;28;1507;-58
2021/04/12 07:56:07;;;;;;;;;;;;;;;18.88;42.40;101581.63;4982785;28;1516;-58
2021/04/12 07:58:45;;;;;;;;;;;;;;;18.90;41.97;101571.63;4985129;28;1387;-58
2021/04/12 08:01:16;;;;;;;;;;;;;;;18.48;37.94;101574.66;4985655;28;1523;-58
2021/04/12 08:03:48;;;;;;;;;;;;;;;18.63;38.29;101564.63;4984425;28;1288;-56
2021/04/12 08:06:31;;;;;;;;;;;;;;;18.62;37.85;101562.94;4982955;28;1914;-56
2021/04/12 08:09:11;;;;;;;;;;;;;;;18.58;38.43;101561.47;4983152;28;1466;-56
2021/04/12 08:11:55;;;;;;;;;;;;;;;18.49;40.55;101568.31;4980439;28;1590;-56
2021/04/12 08:14:32;;;;;;;;;;;;;;;18.50;40.38;101569.19;4981043;28;1383;-56
2021/04/12 08:17:16;;;;;;;;;;;;;;;18.53;40.58;101563.59;4983266;28;1172;-58
2021/04/12 08:19:56;;;;;;;;;;;;;;;18.74;41.63;101549.59;4985823;28;1320;-58
2021/04/12 08:22:34;;;;;;;;;;;;;;;18.88;41.29;101562.84;4981320;28;1331;-58
2021/04/12 08:24:59;;;;;;;;;;;;;;;18.92;41.23;101558.97;4985659;28;1359;-58
2021/04/12 08:27:36;;;;;;;;;;;;;;;18.55;39.63;101566.19;4987912;28;1934;-58
2021/04/12 08:30:11;;;;;;;;;;;;;;;18.65;41.28;101564.53;4983890;28;1498;-56
2021/04/12 08:32:40;;;;;;;;;;;;;;;18.58;40.92;101560.56;4989355;28;1195;-56
2021/04/12 08:35:26;;;;;;;;;;;;;;;18.77;40.97;101544.84;4985588;28;1399;-57
2021/04/12 08:38:09;;;;;;;;;;;;;;;18.80;38.16;101541.13;4986839;28;1365;-56
2021/04/12 08:40:53;;;;;;;;;;;;;;;18.77;34.76;101555.56;4978893;28;1595;-57
2021/04/12 08:43:22;;;;;;;;;;;;;;;18.71;36.07;101560.53;4985390;28;1388;-58
2021/04/12 08:46:06;;;;;;;;;;;;;;;18.79;33.83;101542.06;4986424;28;1295;-56
2021/04/12 08:48:34;;;;;;;;;;;;;;;18.88;38.53;101541.41;4982829;28;1894;-56
2021/04/12 08:51:12;;;;;;;;;;;;;;;18.91;38.31;101545.69;4982282;28;1129;-58
2021/04/12 08:54:00;;;;;;;;;;;;;;;18.96;37.18;101555.09;4979268;28;1264;-58
2021/04/12 08:56:44;;;;;;;;;;;;;;;18.99;38.40;101538.75;4972659;28;12536;-57
2021/04/12 08:59:28;;;;;;;;;;;;;;;19.16;38.22;101531.25;4980999;28;1241;-58
2021/04/12 09:02:03;;;;;;;;;;;;;;;19.06;37.90;101528.44;4978011;28;1526;-56
2021/04/12 09:04:48;;;;;;;;;;;;;;;19.04;38.21;101525.03;4981401;28;1292;-58
2021/04/12 09:07:17;;;;;;;;;;;;;;;19.02;38.41;101521.56;4984981;28;1902;-58
2021/04/12 09:09:48;;;;;;;;;;;;;;;19.03;37.57;101524.16;4990069;28;1530;-56
2021/04/12 09:12:33;;;;;;;;;;;;;;;19.00;36.61;101527.06;4989509;28;1375;-56
2021/04/12 09:15:17;;;;;;;;;;;;;;;18.93;34.39;101511.56;4989835;28;1372;-57
2021/04/12 09:18:01;;;;;;;;;;;;;;;18.78;32.85;101518.91;4990296;28;1272;-56
2021/04/12 09:20:39;;;;;;;;;;;;;;;18.86;37.12;101508.50;4985094;28;1388;-56
2021/04/12 09:23:20;;;;;;;;;;;;;;;18.92;37.71;101524.13;4984807;28;1662;-58
2021/04/12 09:26:03;;;;;;;;;;;;;;;18.95;38.30;101504.28;4986427;28;1271;-56
2021/04/12 09:28:47;;;;;;;;;;;;;;;18.94;36.99;101507.91;4983309;28;1968;-58
2021/04/12 09:31:15;;;;;;;;;;;;;;;18.91;36.11;101502.81;4984250;28;1578;-57
2021/04/12 09:33:44;;;;;;;;;;;;;;;18.85;33.80;101488.03;4985059;28;1364;-58
2021/04/12 09:36:28;;;;;;;;;;;;;;;18.94;34.80;101489.16;4983583;28;1101;-56
2021/04/12 09:39:11;;;;;;;;;;;;;;;18.89;35.97;101470.75;4988763;28;1336;-58
2021/04/12 09:41:49;;;;;;;;;;;;;;;18.80;35.42;101479.47;4989190;28;1323;-57
2021/04/12 09:44:21;;;;;;;;;;;;;;;18.88;36.06;101472.59;4989644;28;1379;-58
2021/04/12 09:47:01;;;;;;;;;;;;;;;18.96;36.97;101479.16;4985446;28;1939;-58
2021/04/12 09:49:45;;;;;;;;;;;;;;;18.88;37.33;101463.69;4985495;28;1207;-57
2021/04/12 09:52:13;;;;;;;;;;;;;;;18.95;36.59;101470.28;4987363;28;1391;-58
2021/04/12 09:54:57;;;;;;;;;;;;;;;18.80;34.77;101458.91;4985223;28;1408;-57
2021/04/12 09:57:41;;;;;;;;;;;;;;;18.88;36.54;101458.34;4986502;28;1396;-56
2021/04/12 10:00:26;;;;;;;;;;;;;;;18.83;34.76;101461.34;4980664;28;1399;-58
2021/04/12 10:03:09;;;;;;;;;;;;;;;18.87;36.64;101449.41;4988054;28;1349;-56
2021/04/12 10:05:53;;;;;;;;;;;;;;;18.91;37.34;101455.41;4987557;28;1360;-56
2021/04/12 10:08:18;;;;;;;;;;;;;;;18.93;37.38;101437.38;4987164;28;1898;-58
2021/04/12 10:10:49;;;;;;;;;;;;;;;19.02;35.72;101443.84;4987673;28;1378;-56
2021/04/12 10:13:34;;;;;;;;;;;;;;;19.04;35.95;101442.78;4986754;28;1304;-59
2021/04/12 10:16:06;;;;;;;;;;;;;;;19.03;35.62;101433.00;4984174;28;1379;-58
2021/04/12 10:18:37;;;;;;;;;;;;;;;19.19;34.60;101432.66;4985395;28;1308;-58
2021/04/12 10:21:23;;;;;;;;;;;;;;;19.15;35.44;101427.66;4988168;28;1203;-57
2021/04/12 10:24:11;;;;;;;;;;;;;;;19.17;34.25;101420.34;4976614;28;1504;-58
2021/04/12 10:26:42;;;;;;;;;;;;;;;18.99;34.42;101415.47;4987270;28;1968;-56
2021/04/12 10:29:09;;;;;;;;;;;;;;;18.97;35.46;101416.56;4981654;28;11125;-58
2021/04/12 10:31:37;;;;;;;;;;;;;;;19.08;31.93;101409.38;4985938;28;1427;-56
2021/04/12 10:34:21;;;;;;;;;;;;;;;19.00;33.67;101397.53;4987608;28;1263;-58
2021/04/12 10:36:46;;;;;;;;;;;;;;;18.96;34.66;101410.34;4983606;28;1418;-56
2021/04/12 10:39:21;;;;;;;;;;;;;;;18.96;33.67;101405.00;4987837;28;1498;-58
2021/04/12 10:41:49;;;;;;;;;;;;;;;19.02;33.61;101399.16;4987786;28;1365;-56
2021/04/12 10:44:21;;;;;;;;;;;;;;;18.96;33.61;101388.03;4985145;28;1394;-56
2021/04/12 10:46:46;;;;;;;;;;;;;;;18.93;33.90;101399.84;4987041;28;11031;-56
2021/04/12 10:49:17;;;;;;;;;;;;;;;18.97;32.29;101405.84;4989589;28;1410;-56
2021/04/12 10:51:43;;;;;;;;;;;;;;;18.92;31.94;101392.81;4985561;28;1419;-58
2021/04/12 10:54:17;;;;;;;;;;;;;;;18.91;31.71;101391.09;4988446;28;1352;-56
2021/04/12 10:56:49;;;;;;;;;;;;;;;18.89;34.48;101382.31;4990523;28;1351;-56
2021/04/12 10:59:32;;;;;;;;;;;;;;;18.89;35.01;101398.38;4987888;28;1385;-56
2021/04/12 11:02:17;;;;;;;;;;;;;;;18.93;34.41;101388.28;4985837;28;1377;-58
2021/04/12 11:04:54;;;;;;;;;;;;;;;18.95;33.91;101375.63;4980692;28;1340;-56
2021/04/12 11:07:38;;;;;;;;;;;;;;;18.96;33.94;101378.19;4988797;28;1902;-56
2021/04/12 11:10:09;;;;;;;;;;;;;;;18.97;34.00;101382.56;4985294;28;1205;-56
2021/04/12 11:12:50;;;;;;;;;;;;;;;18.99;34.85;101375.25;4987993;28;1361;-56
2021/04/12 11:15:25;;;;;;;;;;;;;;;19.02;32.71;101364.31;4988391;28;1427;-56
2021/04/12 11:17:50;;;;;;;;;;;;;;;18.99;31.76;101372.56;4984144;28;1141;-58
2021/04/12 11:20:19;;;;;;;;;;;;;;;19.03;32.02;101363.31;4985709;28;1279;-58
2021/04/12 11:22:57;;;;;;;;;;;;;;;18.99;33.63;101359.16;4985924;28;1486;-56
2021/04/12 11:25:33;;;;;;;;;;;;;;;18.99;34.33;101361.84;4984372;28;1411;-58
2021/04/12 11:27:58;;;;;;;;;;;;;;;19.04;35.09;101370.41;4987205;28;1969;-56
2021/04/12 11:30:24;;;;;;;;;;;;;;;19.07;30.98;101359.41;4989060;28;1379;-58
2021/04/12 11:32:49;;;;;;;;;;;;;;;18.94;31.58;101361.38;4990837;28;1113;-56
2021/04/12 11:35:37;;;;;;;;;;;;;;;19.00;32.33;101355.53;4986942;28;1204;-56
2021/04/12 11:38:07;;;;;;;;;;;;;;;19.07;33.66;101356.72;4983568;28;1253;-58
2021/04/12 11:40:38;;;;;;;;;;;;;;;19.07;35.17;101343.31;4985812;28;1214;-56
2021/04/12 11:43:12;;;;;;;;;;;;;;;19.08;35.34;101344.22;4984671;28;1344;-56
2021/04/12 11:45:41;;;;;;;;;;;;;;;19.04;36.37;101348.94;4983866;28;1161;-58
2021/04/12 11:48:06;;;;;;;;;;;;;;;19.05;36.64;101341.75;4988598;28;2095;-58
2021/04/12 11:50:31;;;;;;;;;;;;;;;19.08;37.62;101334.34;4985219;28;1328;-56
2021/04/12 11:53:06;;;;;;;;;;;;;;;19.05;37.78;101331.88;4989263;28;1503;-56
2021/04/12 11:55:43;;;;;;;;;;;;;;;19.05;37.67;101336.41;4993360;28;1320;-56
2021/04/12 11:58:15;;;;;;;;;;;;;;;19.02;38.38;101324.09;4993171;28;1238;-56
2021/04/12 12:00:52;;;;;;;;;;;;;;;19.02;38.55;101316.06;4990649;28;1523;-56
2021/04/12 12:03:32;;;;;;;;;;;;;;;19.05;39.07;101320.31;4993670;28;1498;-56
2021/04/12 12:06:16;;;;;;;;;;;;;;;19.05;39.43;101323.00;4993748;28;1649;-56
2021/04/12 12:08:41;;;;;;;;;;;;;;;19.03;39.43;101317.75;4991622;28;1969;-56
2021/04/12 12:11:09;;;;;;;;;;;;;;;19.04;39.71;101315.94;4993004;28;1241;-56
2021/04/12 12:13:53;;;;;;;;;;;;;;;19.05;40.16;101306.91;4989112;28;1408;-56
2021/04/12 12:16:18;;;;;;;;;;;;;;;19.07;40.53;101310.31;4988721;28;1368;-56
2021/04/12 12:18:45;;;;;;;;;;;;;;;19.04;40.72;101292.66;4992235;28;1327;-58
2021/04/12 12:21:17;;;;;;;;;;;;;;;19.04;41.16;101306.06;4987970;28;1153;-58
2021/04/12 12:24:20;;;;;;;;;;;;;;;19.05;40.99;101299.72;4991006;28;1365;-55
2021/04/12 12:26:46;;;;;;;;;;;;;;;19.04;41.36;101302.53;4950393;28;1922;-58
2021/04/12 12:29:16;;;;;;;;;;;;;;;19.07;41.78;101299.59;4957471;28;1445;-56
2021/04/12 12:31:59;;;;;;;;;;;;;;;19.06;41.61;101295.22;4972065;28;1177;-58
2021/04/12 12:34:30;;;;;;;;;;;;;;;19.09;41.60;101297.66;4991548;28;1291;-58
2021/04/12 12:37:01;;;;;;;;;;;;;;;19.04;41.77;101283.78;4985430;28;1360;-58
2021/04/12 12:39:38;;;;;;;;;;;;;;;19.04;41.99;101300.69;4992282;28;1295;-56
2021/04/12 12:42:06;;;;;;;;;;;;;;;18.67;41.94;101292.84;4986951;28;1403;-58
2021/04/12 12:44:33;;;;;;;;;;;;;;;18.42;44.28;101285.91;4988783;28;1336;-59
2021/04/12 12:47:05;;;;;;;;;;;;;;;18.74;43.06;101279.84;4990673;28;1907;-57
2021/04/12 12:49:32;;;;;;;;;;;;;;;18.99;43.39;101272.56;4989535;28;1325;-60
2021/04/12 12:52:08;;;;;;;;;;;;;;;19.08;43.58;101248.56;4988534;28;1401;-64
2021/04/12 12:54:39;;;;;;;;;;;;;;;19.14;43.48;101255.25;5007497;28;1351;-58
2021/04/12 12:57:06;;;;;;;;;;;;;;;19.24;43.38;101247.31;4991113;28;1291;-56
2021/04/12 12:59:39;;;;;;;;;;;;;;;19.20;43.30;101251.19;4983819;28;1382;-60
2021/04/12 13:02:13;;;;;;;;;;;;;;;19.18;44.39;101250.47;4990221;28;1488;-66
2021/04/12 13:04:38;;;;;;;;;;;;;;;19.18;44.47;101243.28;4990973;28;1396;-57
2021/04/12 13:07:15;;;;;;;;;;;;;;;19.15;44.43;101237.31;4991273;28;1961;-61
2021/04/12 13:09:52;;;;;;;;;;;;;;;19.15;44.84;101248.06;4989280;28;1161;-57
2021/04/12 13:12:17;;;;;;;;;;;;;;;19.15;45.28;101248.06;4992007;28;1458;-59
2021/04/12 13:14:44;;;;;;;;;;;;;;;19.12;45.27;101237.56;4991632;28;1324;-63
2021/04/12 13:17:26;;;;;;;;;;;;;;;19.14;45.41;101240.97;4985316;28;1623;-57
2021/04/12 13:19:55;;;;;;;;;;;;;;;19.19;45.78;101236.09;4991541;28;1434;-65
2021/04/12 13:22:23;;;;;;;;;;;;;;;19.19;45.45;101239.63;4990531;28;1461;-65
2021/04/12 13:24:48;;;;;;;;;;;;;;;19.20;45.43;101232.41;4985679;28;1392;-62
2021/04/12 13:27:18;;;;;;;;;;;;;;;19.21;46.14;101232.31;4990207;28;1915;-56
2021/04/12 13:29:43;;;;;;;;;;;;;;;19.18;45.59;101218.28;4986612;28;1373;-57